sensor_id;sensor_type;location;lat;lon;timestamp;P1;P2;P0
53698;PMS7003;68408;53.952;27.612;2024-01-15T00:02:56;1.6;1.2;0.9
53698;PMS7003;68408;53.952;27.612;2024-01-15T00:07:58;1.6;1.1;0.8
53698;PMS7003;68408;53.952;27.612;2024-01-15T00:22:34;1.7;1.1;0.8
53698;PMS7003;68408;53.952;27.612;2024-01-15T00:27:34;2.6;1.4;1.1
53698;PMS7003;68408;53.952;27.612;2024-01-15T00:32:26;1.9;1.2;0.9
53698;PMS7003;68408;53.952;27.612;2024-01-15T00:37:46;2.3;2;1.5
53698;PMS7003;68408;53.952;27.612;2024-01-15T00:42:56;2.7;2;1.5
53698;PMS7003;68408;53.952;27.612;2024-01-15T00:47:46;3.5;2.3;1.6
53698;PMS7003;68408;53.952;27.612;2024-01-15T00:53:10;3.9;2.5;2.2
53698;PMS7003;68408;53.952;27.612;2024-01-15T00:57:34;2.9;2.4;1.7
53698;PMS7003;68408;53.952;27.612;2024-01-15T01:02:28;4.4;2.2;1.7
53698;PMS7003;68408;53.952;27.612;2024-01-15T01:07:34;3.3;2.6;2.1
53698;PMS7003;68408;53.952;27.612;2024-01-15T01:12:56;3.3;2.2;1.7
53698;PMS7003;68408;53.952;27.612;2024-01-15T01:18:10;4;2.5;2
53698;PMS7003;68408;53.952;27.612;2024-01-15T01:22:56;2.8;1.9;1.6
53698;PMS7003;68408;53.952;27.612;2024-01-15T01:27:46;2.6;1.7;1.5
53698;PMS7003;68408;53.952;27.612;2024-01-15T01:33:08;2.2;2;1.5
53698;PMS7003;68408;53.952;27.612;2024-01-15T01:38:10;3.3;2.2;1.8
53698;PMS7003;68408;53.952;27.612;2024-01-15T01:42:58;3.7;2.2;1.6
53698;PMS7003;68408;53.952;27.612;2024-01-15T01:47:34;3.7;2.2;1.8
53698;PMS7003;68408;53.952;27.612;2024-01-15T01:52:26;3.1;2.3;1.7
53698;PMS7003;68408;53.952;27.612;2024-01-15T01:57:42;3.6;2.3;1.9
53698;PMS7003;68408;53.952;27.612;2024-01-15T02:02:46;3.5;2.4;1.8
53698;PMS7003;68408;53.952;27.612;2024-01-15T02:07:34;4;2.4;1.9
53698;PMS7003;68408;53.952;27.612;2024-01-15T02:12:36;3.4;2.4;1.8
53698;PMS7003;68408;53.952;27.612;2024-01-15T02:17:57;4.5;3.1;2.5
53698;PMS7003;68408;53.952;27.612;2024-01-15T02:22:44;4.9;3.6;2.8
53698;PMS7003;68408;53.952;27.612;2024-01-15T02:28:11;5.9;4.2;3
53698;PMS7003;68408;53.952;27.612;2024-01-15T02:32:46;4.1;2.9;2.2
53698;PMS7003;68408;53.952;27.612;2024-01-15T02:37:56;6.5;4.3;3.3
53698;PMS7003;68408;53.952;27.612;2024-01-15T02:42:26;5.5;4.1;2.9
53698;PMS7003;68408;53.952;27.612;2024-01-15T02:47:56;5.2;4.2;3.5
53698;PMS7003;68408;53.952;27.612;2024-01-15T02:52:56;5.9;3.9;2.8
53698;PMS7003;68408;53.952;27.612;2024-01-15T02:57:26;6;4.3;3.3
53698;PMS7003;68408;53.952;27.612;2024-01-15T03:02:47;5.2;3.8;2.8
53698;PMS7003;68408;53.952;27.612;2024-01-15T03:08:08;6.9;4.8;3.5
53698;PMS7003;68408;53.952;27.612;2024-01-15T03:13:11;5.3;3.7;2.8
53698;PMS7003;68408;53.952;27.612;2024-01-15T03:17:46;5.3;4;3.2
53698;PMS7003;68408;53.952;27.612;2024-01-15T03:22:56;6.3;4.2;3.5
53698;PMS7003;68408;53.952;27.612;2024-01-15T03:27:57;6.2;3.7;2.5
53698;PMS7003;68408;53.952;27.612;2024-01-15T03:32:35;5.4;4.2;3.4
53698;PMS7003;68408;53.952;27.612;2024-01-15T03:37:39;4.9;3.7;2.5
53698;PMS7003;68408;53.952;27.612;2024-01-15T03:42:34;4.4;3;2.3
53698;PMS7003;68408;53.952;27.612;2024-01-15T03:47:26;5.7;3.9;2.9
53698;PMS7003;68408;53.952;27.612;2024-01-15T03:53:08;4.6;3.7;3.1
53698;PMS7003;68408;53.952;27.612;2024-01-15T03:57:28;5.5;4.2;3.4
53698;PMS7003;68408;53.952;27.612;2024-01-15T04:03:08;6.8;4.4;3.5
53698;PMS7003;68408;53.952;27.612;2024-01-15T04:08:10;5.1;3.8;3
53698;PMS7003;68408;53.952;27.612;2024-01-15T04:12:34;5.7;4.8;3.9
53698;PMS7003;68408;53.952;27.612;2024-01-15T04:18:11;5.7;4.4;3.1
53698;PMS7003;68408;53.952;27.612;2024-01-15T04:23:11;6.1;4.3;3.4
53698;PMS7003;68408;53.952;27.612;2024-01-15T04:27:48;5.7;4.4;3.1
53698;PMS7003;68408;53.952;27.612;2024-01-15T04:32:26;5.6;4.6;3.6
53698;PMS7003;68408;53.952;27.612;2024-01-15T04:38:11;5.5;3.8;2.8
53698;PMS7003;68408;53.952;27.612;2024-01-15T04:42:58;7;4.5;3.6
53698;PMS7003;68408;53.952;27.612;2024-01-15T04:48:10;6.6;4.6;3.7
53698;PMS7003;68408;53.952;27.612;2024-01-15T04:52:46;6.8;5.4;4.4
53698;PMS7003;68408;53.952;27.612;2024-01-15T04:58:11;6.7;5.3;4.3
53698;PMS7003;68408;53.952;27.612;2024-01-15T05:02:26;8.4;6.2;4.9
53698;PMS7003;68408;53.952;27.612;2024-01-15T05:07:35;7.1;5.2;3.9
53698;PMS7003;68408;53.952;27.612;2024-01-15T05:12:35;7.2;5.6;4
53698;PMS7003;68408;53.952;27.612;2024-01-15T05:17:35;9.2;6.6;5.1
53698;PMS7003;68408;53.952;27.612;2024-01-15T05:22:27;8.6;6.7;5.3
53698;PMS7003;68408;53.952;27.612;2024-01-15T05:27:39;7.9;5.4;4.2
53698;PMS7003;68408;53.952;27.612;2024-01-15T05:32:59;9;7.2;5.4
53698;PMS7003;68408;53.952;27.612;2024-01-15T05:37:37;9.4;7.6;5.8
53698;PMS7003;68408;53.952;27.612;2024-01-15T05:43:11;9.5;7.6;6
53698;PMS7003;68408;53.952;27.612;2024-01-15T05:47:45;11;8;6.1
53698;PMS7003;68408;53.952;27.612;2024-01-15T05:53:00;10.2;7.4;5.9
53698;PMS7003;68408;53.952;27.612;2024-01-15T05:57:38;10.9;7.9;6.2
53698;PMS7003;68408;53.952;27.612;2024-01-15T06:02:57;12;9.7;7
53698;PMS7003;68408;53.952;27.612;2024-01-15T06:07:26;11.6;8.2;6
53698;PMS7003;68408;53.952;27.612;2024-01-15T06:12:57;11.8;8.6;6.5
53698;PMS7003;68408;53.952;27.612;2024-01-15T06:18:09;11.7;9.8;7.5
53698;PMS7003;68408;53.952;27.612;2024-01-15T06:22:57;12.8;9.9;7.7
53698;PMS7003;68408;53.952;27.612;2024-01-15T06:27:27;13.5;10.2;7.9
53698;PMS7003;68408;53.952;27.612;2024-01-15T06:33:11;13;9.6;7.3
53698;PMS7003;68408;53.952;27.612;2024-01-15T06:38:11;12.5;10.3;7.5
53698;PMS7003;68408;53.952;27.612;2024-01-15T06:43:01;14.9;10.9;8.3
53698;PMS7003;68408;53.952;27.612;2024-01-15T06:47:39;14.6;11.3;8.6
53698;PMS7003;68408;53.952;27.612;2024-01-15T06:52:45;12.8;10;7.6
53698;PMS7003;68408;53.952;27.612;2024-01-15T06:57:35;12.5;10.2;7.6
53698;PMS7003;68408;53.952;27.612;2024-01-15T07:02:37;14.9;11.7;8.5
53698;PMS7003;68408;53.952;27.612;2024-01-15T07:07:35;12.7;10.6;8.1
53698;PMS7003;68408;53.952;27.612;2024-01-15T07:13:11;12.7;10.7;8.2
53698;PMS7003;68408;53.952;27.612;2024-01-15T07:17:57;13.3;11.2;8.2
53698;PMS7003;68408;53.952;27.612;2024-01-15T07:22:45;14.4;11.1;8.2
53698;PMS7003;68408;53.952;27.612;2024-01-15T07:28:09;11.8;9.4;7
53698;PMS7003;68408;53.952;27.612;2024-01-15T07:33:02;14.6;11.3;8.3
53698;PMS7003;68408;53.952;27.612;2024-01-15T07:37:57;14.9;11.5;8.8
53698;PMS7003;68408;53.952;27.612;2024-01-15T07:42:41;15;12;8.7
53698;PMS7003;68408;53.952;27.612;2024-01-15T07:47:29;15.2;12.5;9.1
53698;PMS7003;68408;53.952;27.612;2024-01-15T07:52:57;14.6;11.8;9.1
53698;PMS7003;68408;53.952;27.612;2024-01-15T07:57:27;14.8;11.1;8.5
53698;PMS7003;68408;53.952;27.612;2024-01-15T08:02:47;15.5;11.7;9.2
53698;PMS7003;68408;53.952;27.612;2024-01-15T08:07:59;13.9;11.2;9.1
53698;PMS7003;68408;53.952;27.612;2024-01-15T08:13:11;14.5;11.1;8.3
53698;PMS7003;68408;53.952;27.612;2024-01-15T08:17:39;13.1;10.6;7.8
53698;PMS7003;68408;53.952;27.612;2024-01-15T08:22:57;16.9;12.6;9.4
53698;PMS7003;68408;53.952;27.612;2024-01-15T08:27:27;14.9;12.3;9
53698;PMS7003;68408;53.952;27.612;2024-01-15T08:32:27;14.5;11.2;8.7
53698;PMS7003;68408;53.952;27.612;2024-01-15T08:37:27;12.5;9.8;6.9
53698;PMS7003;68408;53.952;27.612;2024-01-15T08:42:27;15.6;11.5;9
53698;PMS7003;68408;53.952;27.612;2024-01-15T08:47:35;16.8;12.6;9.3
53698;PMS7003;68408;53.952;27.612;2024-01-15T08:53:11;14;10.5;8.2
53698;PMS7003;68408;53.952;27.612;2024-01-15T08:58:01;13.7;12.1;8.8
53698;PMS7003;68408;53.952;27.612;2024-01-15T09:03:11;14.6;12.3;9.3
53698;PMS7003;68408;53.952;27.612;2024-01-15T09:08:09;16;11.7;9.2
53698;PMS7003;68408;53.952;27.612;2024-01-15T09:12:45;14.9;12;8.9
53698;PMS7003;68408;53.952;27.612;2024-01-15T09:18:11;14.7;12.2;9.2
53698;PMS7003;68408;53.952;27.612;2024-01-15T09:23:09;14.7;12.3;9.6
53698;PMS7003;68408;53.952;27.612;2024-01-15T09:27:57;12.6;10.9;8.2
53698;PMS7003;68408;53.952;27.612;2024-01-15T09:32:43;13.1;11;8.8
53698;PMS7003;68408;53.952;27.612;2024-01-15T09:37:55;13.2;10.4;8.4
53698;PMS7003;68408;53.952;27.612;2024-01-15T09:43:01;14.1;11.4;8.7
53698;PMS7003;68408;53.952;27.612;2024-01-15T09:48:11;14.4;12;9.2
53698;PMS7003;68408;53.952;27.612;2024-01-15T09:52:47;15.9;12.1;9.3
53698;PMS7003;68408;53.952;27.612;2024-01-15T09:58:09;15.7;11.9;9.3
53698;PMS7003;68408;53.952;27.612;2024-01-15T10:02:27;15.3;12.5;9.6
53698;PMS7003;68408;53.952;27.612;2024-01-15T10:07:27;16;13.1;9.5
53698;PMS7003;68408;53.952;27.612;2024-01-15T10:12:27;18.4;13.4;9.9
53698;PMS7003;68408;53.952;27.612;2024-01-15T10:17:36;16.3;11.5;7.8
53698;PMS7003;68408;53.952;27.612;2024-01-15T10:22:27;20.2;16.1;11.4
53698;PMS7003;68408;53.952;27.612;2024-01-15T10:27:35;16.8;13.5;9.8
53698;PMS7003;68408;53.952;27.612;2024-01-15T10:32:59;18.5;15.2;11.7
53698;PMS7003;68408;53.952;27.612;2024-01-15T10:37:27;19.3;15.9;11.9
53698;PMS7003;68408;53.952;27.612;2024-01-15T10:43:11;18.6;16;11.8
53698;PMS7003;68408;53.952;27.612;2024-01-15T10:47:47;16.9;14;10.3
53698;PMS7003;68408;53.952;27.612;2024-01-15T10:53:11;18;14.2;10.5
53698;PMS7003;68408;53.952;27.612;2024-01-15T10:57:27;24.4;18.7;12.9
53698;PMS7003;68408;53.952;27.612;2024-01-15T11:02:57;22.2;18.1;13.2
53698;PMS7003;68408;53.952;27.612;2024-01-15T11:07:43;26.1;20.4;14.2
53698;PMS7003;68408;53.952;27.612;2024-01-15T11:12:57;24.8;18.1;13.3
53698;PMS7003;68408;53.952;27.612;2024-01-15T11:18:11;23.7;19.4;13.7
53698;PMS7003;68408;53.952;27.612;2024-01-15T11:22:57;22.8;18.9;13.3
53698;PMS7003;68408;53.952;27.612;2024-01-15T11:27:39;21.3;18.8;13.5
53698;PMS7003;68408;53.952;27.612;2024-01-15T11:33:31;23.9;19.9;14.4
53698;PMS7003;68408;53.952;27.612;2024-01-15T11:38:11;27.5;21.7;15.2
53698;PMS7003;68408;53.952;27.612;2024-01-15T11:42:41;26.3;21.4;15.3
53698;PMS7003;68408;53.952;27.612;2024-01-15T11:47:51;27;21.1;15.8
53698;PMS7003;68408;53.952;27.612;2024-01-15T11:52:31;25.8;21.4;15.8
53698;PMS7003;68408;53.952;27.612;2024-01-15T11:57:39;23.7;19;13.5
53698;PMS7003;68408;53.952;27.612;2024-01-15T12:02:27;26;20.1;14.6
53698;PMS7003;68408;53.952;27.612;2024-01-15T12:07:57;25.4;18.9;13.9
53698;PMS7003;68408;53.952;27.612;2024-01-15T12:12:51;24.3;20.2;14.3
53698;PMS7003;68408;53.952;27.612;2024-01-15T12:17:55;25.5;21;15.2
53698;PMS7003;68408;53.952;27.612;2024-01-15T12:22:27;22.9;18.6;14
53698;PMS7003;68408;53.952;27.612;2024-01-15T12:28:09;24.7;19.9;14.6
53698;PMS7003;68408;53.952;27.612;2024-01-15T12:33:00;25.6;21.8;16
53698;PMS7003;68408;53.952;27.612;2024-01-15T12:37:57;27.3;22.2;16
53698;PMS7003;68408;53.952;27.612;2024-01-15T12:43:05;23.2;18.6;13.6
53698;PMS7003;68408;53.952;27.612;2024-01-15T12:47:57;23.1;19.4;14.2
53698;PMS7003;68408;53.952;27.612;2024-01-15T12:52:29;23.2;18.6;13.9
53698;PMS7003;68408;53.952;27.612;2024-01-15T12:57:43;23.5;19.5;14.1
53698;PMS7003;68408;53.952;27.612;2024-01-15T13:02:49;26;21.4;15
53698;PMS7003;68408;53.952;27.612;2024-01-15T13:08:01;22.4;17.9;13.1
53698;PMS7003;68408;53.952;27.612;2024-01-15T13:13:11;25.9;20.9;14.9
53698;PMS7003;68408;53.952;27.612;2024-01-15T13:17:47;23.2;19.2;13.9
53698;PMS7003;68408;53.952;27.612;2024-01-15T13:23:11;22.8;17.2;12.7
53698;PMS7003;68408;53.952;27.612;2024-01-15T13:27:27;22.3;18.4;13
53698;PMS7003;68408;53.952;27.612;2024-01-15T13:32:28;21.6;17.4;12.9
53698;PMS7003;68408;53.952;27.612;2024-01-15T13:47:39;14.3;11.4;8.2
53698;PMS7003;68408;53.952;27.612;2024-01-15T13:53:11;23.4;19.1;13.3
53698;PMS7003;68408;53.952;27.612;2024-01-15T13:58:01;22.6;17.8;12.8
53698;PMS7003;68408;53.952;27.612;2024-01-15T14:03:09;20.9;17.2;11.9
53698;PMS7003;68408;53.952;27.612;2024-01-15T14:08:11;24.6;19.9;14.4
53698;PMS7003;68408;53.952;27.612;2024-01-15T14:12:41;22.4;18.4;13.7
53698;PMS7003;68408;53.952;27.612;2024-01-15T14:18:11;24.4;18.9;13.5
53698;PMS7003;68408;53.952;27.612;2024-01-15T14:23:12;22.4;18.4;13.3
53698;PMS7003;68408;53.952;27.612;2024-01-15T14:27:57;22.1;18.6;14.1
53698;PMS7003;68408;53.952;27.612;2024-01-15T14:32:47;21.9;18.7;13.9
53698;PMS7003;68408;53.952;27.612;2024-01-15T14:37:27;21.8;17.9;12.8
53698;PMS7003;68408;53.952;27.612;2024-01-15T14:42:27;21.4;17.9;13.1
53698;PMS7003;68408;53.952;27.612;2024-01-15T14:47:35;19.4;17.1;12.7
53698;PMS7003;68408;53.952;27.612;2024-01-15T14:52:27;21.2;17.7;12.6
53698;PMS7003;68408;53.952;27.612;2024-01-15T14:57:27;18.4;14.2;10.8
53698;PMS7003;68408;53.952;27.612;2024-01-15T15:02:27;20.5;16.7;12
53698;PMS7003;68408;53.952;27.612;2024-01-15T15:08:09;19.7;16.9;13.2
53698;PMS7003;68408;53.952;27.612;2024-01-15T15:13:01;16.3;12.2;8.6
53698;PMS7003;68408;53.952;27.612;2024-01-15T15:18:11;20.7;15.9;11.5
53698;PMS7003;68408;53.952;27.612;2024-01-15T15:23:09;19.6;15.8;11.9
53698;PMS7003;68408;53.952;27.612;2024-01-15T15:28:01;19.6;16.3;11.8
53698;PMS7003;68408;53.952;27.612;2024-01-15T15:32:57;19.6;15.6;11.4
53698;PMS7003;68408;53.952;27.612;2024-01-15T15:38:11;18.4;14.6;10.8
53698;PMS7003;68408;53.952;27.612;2024-01-15T15:42:57;18.5;15;11.7
53698;PMS7003;68408;53.952;27.612;2024-01-15T15:47:35;18.7;15.1;11.1
53698;PMS7003;68408;53.952;27.612;2024-01-15T15:52:57;15;12.2;9.5
53698;PMS7003;68408;53.952;27.612;2024-01-15T15:57:41;15.3;13.1;9.3
53698;PMS7003;68408;53.952;27.612;2024-01-15T16:03:11;13.1;11.4;8.8
53698;PMS7003;68408;53.952;27.612;2024-01-15T16:08:11;13.8;10.9;8.3
53698;PMS7003;68408;53.952;27.612;2024-01-15T16:13:11;14.6;12;8.8
53698;PMS7003;68408;53.952;27.612;2024-01-15T16:17:47;13.7;11.2;7.9
53698;PMS7003;68408;53.952;27.612;2024-01-15T16:22:35;15.2;11.8;8.6
53698;PMS7003;68408;53.952;27.612;2024-01-15T16:27:27;12.9;10.1;7.4
53698;PMS7003;68408;53.952;27.612;2024-01-15T16:32:45;14.4;11.8;8.6
53698;PMS7003;68408;53.952;27.612;2024-01-15T16:37:27;13;10.1;7.8
53698;PMS7003;68408;53.952;27.612;2024-01-15T16:42:35;12.9;10.3;7.9
53698;PMS7003;68408;53.952;27.612;2024-01-15T16:48:01;11.5;9.3;7.4
53698;PMS7003;68408;53.952;27.612;2024-01-15T16:52:27;11.5;9.1;7.3
53698;PMS7003;68408;53.952;27.612;2024-01-15T16:58:09;12.8;9.8;7.4
53698;PMS7003;68408;53.952;27.612;2024-01-15T17:02:47;11.9;9.4;7.1
53698;PMS7003;68408;53.952;27.612;2024-01-15T17:08:09;11.6;9.8;7.6
53698;PMS7003;68408;53.952;27.612;2024-01-15T17:12:51;15.1;11;8.3
53698;PMS7003;68408;53.952;27.612;2024-01-15T17:17:57;13.6;10.7;8.4
53698;PMS7003;68408;53.952;27.612;2024-01-15T17:22:27;15.3;10.9;8
53698;PMS7003;68408;53.952;27.612;2024-01-15T17:28:09;15;11.4;8.5
53698;PMS7003;68408;53.952;27.612;2024-01-15T17:33:09;14.9;12.3;8.8
53698;PMS7003;68408;53.952;27.612;2024-01-15T17:37:57;13.7;11.1;8
53698;PMS7003;68408;53.952;27.612;2024-01-15T17:42:47;13;9.6;7
53698;PMS7003;68408;53.952;27.612;2024-01-15T17:48:11;13.2;11.7;9.2
53698;PMS7003;68408;53.952;27.612;2024-01-15T17:53:11;16.6;13.1;9.4
53698;PMS7003;68408;53.952;27.612;2024-01-15T17:58:01;12.9;10;7.4
53698;PMS7003;68408;53.952;27.612;2024-01-15T18:02:47;13.9;12.6;9.3
53698;PMS7003;68408;53.952;27.612;2024-01-15T18:07:35;15.4;11.8;8.8
53698;PMS7003;68408;53.952;27.612;2024-01-15T18:12:27;14;11.5;8.8
53698;PMS7003;68408;53.952;27.612;2024-01-15T18:17:35;15.8;11.1;8
53698;PMS7003;68408;53.952;27.612;2024-01-15T18:22:57;13.8;10.3;8.1
53698;PMS7003;68408;53.952;27.612;2024-01-15T18:28:01;14.8;12;8.8
53698;PMS7003;68408;53.952;27.612;2024-01-15T18:32:57;10.6;7.9;6.1
53698;PMS7003;68408;53.952;27.612;2024-01-15T18:37:47;14.2;11.8;9.4
53698;PMS7003;68408;53.952;27.612;2024-01-15T18:43:09;15.2;11.8;9.2
53698;PMS7003;68408;53.952;27.612;2024-01-15T18:48:01;13.6;10.5;7.3
53698;PMS7003;68408;53.952;27.612;2024-01-15T18:52:57;14.3;11.2;8.4
53698;PMS7003;68408;53.952;27.612;2024-01-15T18:57:57;14.4;12.2;8.9
53698;PMS7003;68408;53.952;27.612;2024-01-15T19:02:57;12.4;10.3;7.8
53698;PMS7003;68408;53.952;27.612;2024-01-15T19:08:11;14.7;11.4;8.5
